This is the latest recevied weather packets stored in our database for station/object GW1480. If no packets are shown the sender has not sent any weather packets the latest 10 day(s).
| Time | Temp. | Humidity | Pressure | Rain* | Wind** | Luminosity | Snow |
|---|---|---|---|---|---|---|---|
| 1777588785 | 13.89° C | 59% | 1017.2 hPa | 0 mm | - | - | - |
| 1777586613 | 14.44° C | 58% | 1017.9 hPa | 0 mm | - | - | - |
| 1777586269 | 13.89° C | 57% | 1017.6 hPa | 0 mm | - | - | - |
| 1777584813 | 14.44° C | 64% | 1017.6 hPa | 0 mm | - | - | - |
| 1777581583 | 14.44° C | 61% | 1017.6 hPa | 0 mm | - | - | - |
| 1777577591 | 13.33° C | 60% | 1018.2 hPa | 0 mm | - | - | - |
| 1777576913 | 13.33° C | 59% | 1018.2 hPa | 0 mm | - | - | - |
| 1777567169 | 13.89° C | 66% | 1017.9 hPa | 0 mm | - | - | - |
| 1777566439 | 13.89° C | 65% | 1017.6 hPa | 0 mm | - | - | - |
| 1777565021 | 13.89° C | 60% | 1017.6 hPa | 0 mm | - | - | - |
| 1777562130 | 13.33° C | 63% | 1017.6 hPa | 0 mm | - | - | - |
| 1777559257 | 12.78° C | 67% | 1017.2 hPa | 0 mm | - | - | - |
| 1777558875 | 12.78° C | 65% | 1016.9 hPa | 0 mm | - | - | - |
| 1777558526 | 12.78° C | 71% | 1017.6 hPa | 0 mm | - | - | - |
| 1777557798 | 12.22° C | 73% | 1017.6 hPa | 0 mm | - | - | - |
| 1777551683 | 8.33° C | 98% | 1016.9 hPa | 0 mm | - | - | - |
| 1777549896 | 7.22° C | 98% | 1016.5 hPa | 0 mm | - | - | - |
| 1777548462 | 6.67° C | 98% | 1016.2 hPa | 0 mm | - | - | - |
| 1777545935 | 6.67° C | 98% | 1015.2 hPa | 0 mm | - | - | - |
| 1777545576 | 6.67° C | 98% | 1015.2 hPa | 0 mm | - | - | - |
| 1777542702 | 7.78° C | 98% | 1014.9 hPa | 0 mm | - | - | - |
| 1777542345 | 7.78° C | 98% | 1014.9 hPa | 0 mm | - | - | - |
| 1777540879 | 8.33° C | 98% | 1014.5 hPa | 0 mm | - | - | - |
| 1777540534 | 8.33° C | 98% | 1014.5 hPa | 0 mm | - | - | - |
| 1777538721 | 8.89° C | 98% | 1014.9 hPa | 0 mm | - | - | - |
* Rain since midnight (hover to see other rain measurements)
** Current wind speed in m/s (hover to see current wind gust speed)